»·PEaware :: AAL3210 KLAS-KSNA

AAL3210 :: KLAS-KSNA

FLIGHT INFORMATION

Flight Status: Arrived
Operator:
American Airlines
More flights by this operator :: More flights under this callsign
Pilot: Paul K. (16555)
Aircraft: BOEING 737-200
(B732)
More flights by this aircraft type
Origin: KLAS McCarran Intl
United States
Destination: KSNA John Wayne-Orange Co
United States
More flights between these airports :: More routes between these airports
Route: +MCCRN5 HEC KAYOH7
File this flight plan on PilotEdge
Remarks: RMK / SIMBRIEF
Altitude:
(Current/Filed)
13,000ft
Speed:
(Current/Filed)
418kts
Departed: 27-Jul-19 07:34 PM
Arrived: 27-Jul-19 08:22 PM
Distance/Time
Traveled:
197nm/0:48
Distance/Time
To Go:
Arrived

Flight Plot

Page will automatically refresh every two minutes.

Flight plan parsing failed; only flown route is shown


Map Options




Map Legend


Flown Route
Filed Route
Departure Airport
Arrival Airport
Navaid (VOR, NDB)
Fix

Horizontal Profiles

Position Reports

Time Latitude Longitude Heading Altitude Ground
Speed
27-Jul-19 19:15 36.080552 -115.145708 270 2123ft 0kts
27-Jul-19 19:16 36.080552 -115.145708 270 2123ft 0kts
27-Jul-19 19:17 36.080552 -115.145708 270 2123ft 0kts
27-Jul-19 19:18 36.080552 -115.145708 270 2123ft 0kts
27-Jul-19 19:19 36.080552 -115.145708 270 2123ft 0kts
27-Jul-19 19:20 36.080552 -115.145708 270 2123ft 0kts
27-Jul-19 19:21 36.080552 -115.145708 270 2123ft 0kts
27-Jul-19 19:22 36.080552 -115.145708 270 2123ft 0kts
27-Jul-19 19:23 36.080551 -115.145181 270 2123ft 5kts
27-Jul-19 19:24 36.080551 -115.145124 270 2123ft 0kts
27-Jul-19 19:25 36.080551 -115.145124 270 2123ft 0kts
27-Jul-19 19:26 36.079507 -115.144875 169 2123ft 5kts
27-Jul-19 19:27 36.078320 -115.144936 264 2123ft 4kts
27-Jul-19 19:28 36.077947 -115.147861 259 2123ft 15kts
27-Jul-19 19:29 36.077959 -115.153641 267 2123ft 15kts
27-Jul-19 19:30 36.078001 -115.159343 271 2123ft 16kts
27-Jul-19 19:31 36.077377 -115.161286 181 2123ft 0kts
27-Jul-19 19:32 36.076383 -115.160916 91 2123ft 7kts
27-Jul-19 19:33 36.076456 -115.128088 91 2325ft 179kts
27-Jul-19 19:34 36.076708 -115.060982 90 4231ft 218kts
27-Jul-19 19:35 36.074922 -114.975328 88 6872ft 247kts
27-Jul-19 19:36 36.070698 -114.883143 92 9051ft 292kts
27-Jul-19 19:37 36.064675 -114.778534 92 11593ft 317kts
27-Jul-19 19:38 36.039240 -114.665874 140 13258ft 362kts
27-Jul-19 19:39 35.946998 -114.666723 223 15429ft 360kts
27-Jul-19 19:40 35.880453 -114.762518 231 17459ft 371kts
27-Jul-19 19:41 35.812403 -114.862534 231 19285ft 382kts
27-Jul-19 19:42 35.742929 -114.964753 231 20947ft 391kts
27-Jul-19 19:43 35.671775 -115.069477 230 22463ft 400kts
27-Jul-19 19:44 35.604173 -115.181010 234 23863ft 407kts
27-Jul-19 19:45 35.532140 -115.298204 234 23991ft 446kts
27-Jul-19 19:46 35.453873 -115.424194 234 23960ft 470kts
27-Jul-19 19:47 35.374444 -115.551489 234 23926ft 467kts
27-Jul-19 19:48 35.294384 -115.679286 233 23918ft 466kts
27-Jul-19 19:49 35.214398 -115.806634 233 23918ft 466kts
27-Jul-19 19:50 35.134576 -115.933328 233 23919ft 468kts
27-Jul-19 19:51 35.054387 -116.060221 233 23965ft 471kts
27-Jul-19 19:52 34.973229 -116.187893 232 24009ft 473kts
27-Jul-19 19:53 34.891089 -116.316109 230 24005ft 476kts
27-Jul-19 19:54 34.801476 -116.439217 229 24062ft 477kts
27-Jul-19 19:55 34.712900 -116.560729 229 24132ft 478kts
27-Jul-19 19:56 34.627401 -116.676358 226 24026ft 416kts
27-Jul-19 19:57 34.548576 -116.774655 226 22088ft 396kts
27-Jul-19 19:58 34.472161 -116.870003 226 19894ft 385kts
27-Jul-19 19:59 34.397817 -116.962601 226 17558ft 374kts
27-Jul-19 20:00 34.325696 -117.051927 226 15366ft 361kts
27-Jul-19 20:01 34.250824 -117.129132 195 13153ft 348kts
27-Jul-19 20:02 34.157746 -117.133151 184 13052ft 322kts
27-Jul-19 20:03 34.068138 -117.143130 187 12020ft 320kts
27-Jul-19 20:04 33.980146 -117.155467 187 10649ft 313kts
27-Jul-19 20:05 33.893285 -117.168168 187 9302ft 307kts
27-Jul-19 20:07 33.808587 -117.180564 187 8019ft 300kts
27-Jul-19 20:08 33.730847 -117.209161 234 7991ft 288kts
27-Jul-19 20:09 33.734568 -117.294353 288 7972ft 242kts
27-Jul-19 20:10 33.754192 -117.366016 288 7993ft 220kts
27-Jul-19 20:11 33.778862 -117.434781 285 7986ft 222kts
27-Jul-19 20:12 33.781417 -117.498992 272 7514ft 221kts
27-Jul-19 20:13 33.783869 -117.573403 272 6503ft 218kts
27-Jul-19 20:14 33.810241 -117.635719 302 6010ft 196kts
27-Jul-19 20:15 33.838466 -117.694855 290 5334ft 207kts
27-Jul-19 20:16 33.834547 -117.754259 237 4169ft 176kts
27-Jul-19 20:17 33.799242 -117.790575 210 2663ft 149kts
27-Jul-19 20:18 33.764062 -117.812741 207 1651ft 140kts
27-Jul-19 20:19 33.730001 -117.834550 208 1054ft 136kts
27-Jul-19 20:20 33.696559 -117.855650 207 392ft 133kts
27-Jul-19 20:21 33.669069 -117.873118 210 65ft 45kts
27-Jul-19 20:22 33.667506 -117.872878 111 65ft 0kts
27-Jul-19 20:23 33.669833 -117.870205 40 65ft 27kts
27-Jul-19 20:24 33.675779 -117.865410 43 65ft 12kts
27-Jul-19 20:24 33.675723 -117.864636 118 65ft 0kts
27-Jul-19 20:26 33.675723 -117.864636 118 65ft 0kts

Navigation Log

Ident Type
Flight plan parsing failed, navigation log unavailable